Hauptseite
METAR-TAF:

METAR-TAF

Flughäfen :

Tiree Airport

Tiree, Schottland

Breite: 56-30N, Länge: 006-53W, Höhe: 12 m

Beobachtung

Neuester Wetterbericht von vor 33 Minuten, um 01:50 UTC
Wind 11 kt aus Ost/Südost, variierte zwischen Ost/Nordost und Süd/Südost
Temperatur 10°C
Luftfeuchtigkeit 66%
Luftdruck 1028 hPa
Sichtweite 10 km oder mehr

METAR: EGPU 180150Z AUTO 11011KT 070V150 9999 NCD 10/04 Q1028

Zeit: 02:23 (02:23 UTC)

Prognose

Neuester Wetterbericht von vor 12 Stunden und 20 Minuten, um 14:03 UTC
Gültige Prognose vom 17 um 15 UTC bis 17 um 19 UTC
Wind 18 kt aus Südost
Sichtweite 10 km oder mehr
Aufgelockert bewölkt in der Höhe von 1800 ft
Zeitweise
vom 17 um 15 UTC bis 17 um 19 UTC
Wind 22 kt aus Südost, Böen bis zu 32 kt
Sichtweite: 8000 m

TAF: EGPU 171403Z 1715/1719 13018KT 9999 SCT018 TEMPO 1715/1719 8000 14022G32KT

Wetterbeobachtungen und Prognosen von mehr als 4000 Flughäfen (METAR und TAF Bericht).

Die verfügbaren Stationen werden durch gelbe und rote Markierungen auf der Karte dargestellt.

Führen Sie die Maus auf sie, um den Namen der Station zu sehen.

Darauf klicken, um die Beobachtung von Wetterbeobachtungen und Prognosen zu sehen.

Um die Karte zu ändern : klicken Sie auf den grünen Tasten mit einem schwarzen Kreuz Zum Vergrößern, auf den grünen Button mit einem Gedankenstrich zu verkleinern, oder auf die grünen Pfeile für benachbarte Karten.


METAR-TAF: